Time;durP1;ratioP1;P1;durP2;ratioP2;P2;SDS_P1;SDS_P2;PMS_P1;PMS_P2;Temp;Humidity;BMP_temperature;BMP_pressure;BME280_temperature;BME280_humidity;BME280_pressure;Samples;Min_cycle;Max_cycle;Signal;HPM_P1;HPM_P2
2022/07/28 00:02:11;;;;;;;7.72;2.70;;;;;;;16.92;56.14;101837.72;5056945;28;20398;-66
2022/07/28 00:04:39;;;;;;;4.80;2.20;;;;;;;16.80;56.47;101831.44;5091738;28;20039;-64
2022/07/28 00:07:06;;;;;;;6.53;2.35;;;;;;;16.83;56.07;101833.03;5091182;28;20020;-64
2022/07/28 00:09:32;;;;;;;4.32;2.28;;;;;;;16.84;56.32;101839.25;5091225;28;20020;-66
2022/07/28 00:11:57;;;;;;;4.72;2.22;;;;;;;16.74;56.80;101839.91;5061197;28;20123;-64
2022/07/28 00:14:25;;;;;;;5.35;2.10;;;;;;;16.72;56.25;101839.16;5093155;28;20035;-66
2022/07/28 00:16:51;;;;;;;8.80;2.45;;;;;;;16.75;56.10;101836.22;5093356;28;20030;-66
2022/07/28 00:19:16;;;;;;;9.02;2.55;;;;;;;16.67;56.34;101833.25;5092139;28;20107;-65
2022/07/28 00:21:42;;;;;;;4.65;2.20;;;;;;;16.67;56.46;101841.31;5090544;28;20024;-64
2022/07/28 00:24:10;;;;;;;5.13;2.28;;;;;;;16.72;56.33;101832.91;5090027;28;20081;-66
2022/07/28 00:26:36;;;;;;;4.30;2.08;;;;;;;16.53;56.59;101836.97;5094174;28;20036;-66
2022/07/28 00:29:02;;;;;;;5.32;2.15;;;;;;;16.66;56.51;101834.22;5092183;28;20080;-66
2022/07/28 00:31:30;;;;;;;7.65;2.50;;;;;;;16.51;56.83;101832.66;5093385;28;20016;-66
2022/07/28 00:33:58;;;;;;;5.30;2.47;;;;;;;16.43;57.39;101832.34;5092493;28;20028;-65
2022/07/28 00:36:25;;;;;;;5.43;2.50;;;;;;;16.50;57.13;101836.28;5092086;28;20028;-66
2022/07/28 00:38:50;;;;;;;3.15;2.30;;;;;;;16.45;56.75;101830.44;5093599;28;20028;-66
2022/07/28 00:41:18;;;;;;;5.40;2.58;;;;;;;16.35;57.26;101828.41;5090130;28;20044;-66
2022/07/28 00:43:46;;;;;;;3.90;2.40;;;;;;;16.31;57.20;101821.53;5091906;28;20020;-64
2022/07/28 00:46:13;;;;;;;6.00;2.28;;;;;;;16.18;57.34;101830.53;5093514;28;20436;-65
2022/07/28 00:48:50;;;;;;;5.30;2.78;;;;;;;16.42;56.94;101827.97;5093028;28;20124;-65
2022/07/28 00:51:21;;;;;;;7.55;2.78;;;;;;;16.40;56.95;101824.53;5089192;28;20024;-64
2022/07/28 00:53:47;;;;;;;3.67;2.22;;;;;;;16.46;56.87;101816.00;5093425;28;20020;-64
2022/07/28 00:56:13;;;;;;;5.28;2.40;;;;;;;16.41;56.89;101807.44;5075398;28;20031;-64
2022/07/28 00:58:42;;;;;;;4.97;2.33;;;;;;;16.39;56.96;101807.56;5092634;28;20052;-64
2022/07/28 01:01:10;;;;;;;3.50;2.50;;;;;;;16.38;56.83;101805.81;5091778;28;20111;-64
2022/07/28 01:03:40;;;;;;;5.90;2.38;;;;;;;16.37;56.87;101820.22;5090099;28;20040;-64
2022/07/28 01:06:15;;;;;;;5.68;2.85;;;;;;;16.42;56.87;101820.75;5091304;28;20393;-66
2022/07/28 01:09:25;;;;;;;4.78;2.42;;;;;;;16.32;57.18;101820.56;5092015;28;20105;-64
2022/07/28 01:12:03;;;;;;;5.30;2.42;;;;;;;16.22;57.76;101811.44;5057896;28;20039;-66
2022/07/28 01:15:12;;;;;;;6.63;2.35;;;;;;;16.23;57.19;101809.59;5090238;28;20028;-65
2022/07/28 01:17:42;;;;;;;4.63;2.45;;;;;;;16.11;57.54;101822.06;5089423;28;20040;-64
2022/07/28 01:20:23;;;;;;;4.97;2.72;;;;;;;16.23;57.12;101817.66;5095245;28;20051;-64
2022/07/28 01:23:10;;;;;;;6.07;2.50;;;;;;;16.18;57.42;101806.38;5093063;28;20036;-64
2022/07/28 01:25:49;;;;;;;5.10;2.80;;;;;;;16.10;57.80;101817.69;5091821;28;20032;-64
2022/07/28 01:28:32;;;;;;;5.18;2.50;;;;;;;16.03;57.85;101811.03;5090392;28;20173;-64
2022/07/28 01:31:03;;;;;;;5.55;2.38;;;;;;;16.06;57.87;101803.63;5091006;28;20114;-66
2022/07/28 01:33:36;;;;;;;7.68;2.67;;;;;;;16.06;57.70;101805.44;5090082;28;20024;-66
2022/07/28 01:36:12;;;;;;;6.10;2.70;;;;;;;16.02;57.81;101801.25;5092375;28;20517;-64
2022/07/28 01:38:38;;;;;;;3.95;2.38;;;;;;;15.95;58.27;101805.38;5090315;28;20031;-65
2022/07/28 01:41:08;;;;;;;3.97;2.13;;;;;;;15.81;58.23;101792.91;5089249;28;20028;-66
2022/07/28 01:43:37;;;;;;;5.10;2.25;;;;;;;15.90;58.24;101794.94;5091353;28;20032;-66
2022/07/28 01:46:04;;;;;;;4.13;2.35;;;;;;;15.82;58.60;101800.81;5090891;28;20028;-64
2022/07/28 01:48:32;;;;;;;7.03;2.70;;;;;;;15.71;58.77;101800.75;5090963;28;20031;-64
2022/07/28 01:50:59;;;;;;;4.78;2.90;;;;;;;15.76;58.47;101801.25;5094250;28;20114;-66
2022/07/28 01:53:26;;;;;;;5.47;2.63;;;;;;;15.54;59.26;101783.09;5091839;28;20024;-64
2022/07/28 01:55:53;;;;;;;5.90;2.47;;;;;;;15.65;58.88;101785.91;5091806;28;20051;-64
2022/07/28 01:58:21;;;;;;;4.38;2.80;;;;;;;15.70;58.79;101790.09;5093738;28;20030;-64
2022/07/28 02:00:51;;;;;;;3.97;2.38;;;;;;;15.70;59.22;101790.09;5095281;28;20119;-64
2022/07/28 02:03:18;;;;;;;5.65;3.03;;;;;;;15.64;59.26;101788.69;5097898;28;20118;-64
2022/07/28 02:05:44;;;;;;;5.25;2.67;;;;;;;15.50;59.29;101789.66;5094488;28;20059;-64
2022/07/28 02:08:12;;;;;;;5.18;2.92;;;;;;;15.42;59.50;101782.13;5095769;28;20042;-64
2022/07/28 02:11:38;;;;;;;7.28;2.63;;;;;;;15.53;59.50;101775.16;5093513;28;20023;-65
2022/07/28 02:13:26;;;;;;;3.45;2.80;;;;;;;15.49;59.65;101782.56;5093869;28;20036;-64
2022/07/28 02:15:53;;;;;;;4.72;2.40;;;;;;;15.50;59.50;101786.09;5094732;28;20031;-64
2022/07/28 02:18:20;;;;;;;6.80;2.80;;;;;;;15.46;59.64;101777.41;5094619;28;20020;-65
2022/07/28 02:20:48;;;;;;;5.22;2.97;;;;;;;15.41;59.85;101779.53;5095915;28;20032;-64
2022/07/28 02:23:15;;;;;;;6.32;2.83;;;;;;;15.30;59.67;101777.59;5094115;28;20069;-64
2022/07/28 02:25:41;;;;;;;7.63;2.83;;;;;;;15.36;59.94;101779.88;5096976;28;20031;-64
2022/07/28 02:28:11;;;;;;;4.72;2.95;;;;;;;15.40;59.92;101780.50;5092002;28;20020;-65
2022/07/28 02:30:44;;;;;;;9.00;2.90;;;;;;;15.20;60.46;101772.00;5095591;28;20023;-64
2022/07/28 02:33:22;;;;;;;6.72;2.60;;;;;;;15.24;60.48;101772.66;5092978;28;20055;-64
2022/07/28 02:35:54;;;;;;;4.63;2.80;;;;;;;15.15;60.87;101774.16;5092302;28;20039;-65
2022/07/28 02:38:24;;;;;;;4.82;2.80;;;;;;;15.19;60.60;101774.78;5094928;28;20103;-65
2022/07/28 02:40:56;;;;;;;7.40;2.75;;;;;;;15.16;60.93;101767.81;5092515;28;20376;-65
2022/07/28 02:43:26;;;;;;;4.32;3.10;;;;;;;15.09;60.99;101779.03;5096185;28;20020;-64
2022/07/28 02:45:54;;;;;;;6.72;3.10;;;;;;;15.15;60.82;101765.25;5094107;28;20024;-65
2022/07/28 02:48:24;;;;;;;4.60;3.07;;;;;;;15.01;60.89;101778.72;5093672;28;20020;-64
2022/07/28 02:50:52;;;;;;;8.45;2.85;;;;;;;15.06;60.88;101772.09;5093553;28;20024;-64
2022/07/28 02:53:19;;;;;;;4.15;2.90;;;;;;;14.91;61.09;101768.63;5095549;28;20077;-64
2022/07/28 02:55:47;;;;;;;4.97;3.13;;;;;;;15.06;60.94;101784.59;5094962;28;20036;-64
2022/07/28 02:58:14;;;;;;;4.05;2.72;;;;;;;15.02;60.95;101769.69;5093368;28;20122;-65
2022/07/28 03:00:40;;;;;;;3.40;2.80;;;;;;;14.93;61.08;101772.03;5092090;28;20036;-64
2022/07/28 03:03:07;;;;;;;4.20;2.75;;;;;;;15.01;61.13;101776.03;5094826;28;20098;-64
2022/07/28 03:05:33;;;;;;;9.23;3.17;;;;;;;15.02;61.04;101767.88;5094647;28;20039;-64
2022/07/28 03:07:59;;;;;;;4.78;3.00;;;;;;;15.02;60.90;101769.69;5092850;28;20040;-66
2022/07/28 03:10:25;;;;;;;5.63;2.97;;;;;;;14.94;61.24;101767.53;5094315;28;20039;-64
2022/07/28 03:12:53;;;;;;;6.38;3.40;;;;;;;14.81;61.25;101764.81;5093693;28;20099;-64
2022/07/28 03:15:19;;;;;;;5.43;3.10;;;;;;;14.86;61.30;101775.25;5093493;28;20107;-64
2022/07/28 03:17:45;;;;;;;6.80;2.70;;;;;;;14.86;61.13;101773.41;5093450;28;20154;-65
2022/07/28 03:20:11;;;;;;;7.30;2.85;;;;;;;14.76;61.50;101778.53;5094230;28;20391;-65
2022/07/28 03:22:37;;;;;;;5.82;3.22;;;;;;;14.78;61.33;101775.72;5093436;28;20542;-64
2022/07/28 03:25:12;;;;;;;3.67;2.70;;;;;;;14.84;61.28;101771.78;5094206;28;20132;-65
2022/07/28 03:27:47;;;;;;;5.32;3.00;;;;;;;14.66;61.52;101773.88;5092042;28;20088;-65
2022/07/28 03:30:16;;;;;;;6.28;3.10;;;;;;;14.64;61.75;101773.94;5092399;28;20428;-65
2022/07/28 03:32:47;;;;;;;5.35;3.20;;;;;;;14.64;61.56;101768.59;5093276;28;20020;-66
2022/07/28 03:35:13;;;;;;;3.58;2.90;;;;;;;14.62;61.55;101778.56;5095700;28;20028;-64
2022/07/28 03:37:47;;;;;;;9.70;2.80;;;;;;;14.68;61.33;101778.16;5093644;28;20077;-64
2022/07/28 03:40:13;;;;;;;4.82;2.90;;;;;;;14.65;61.37;101769.47;5092747;28;20058;-64
2022/07/28 03:42:43;;;;;;;5.75;3.33;;;;;;;14.60;61.25;101766.22;5093054;28;20445;-64
2022/07/28 03:45:08;;;;;;;;;;;;;;;14.80;60.33;101775.66;5093003;28;20027;-64
2022/07/28 03:47:34;;;;;;;7.57;3.10;;;;;;;14.61;61.39;101778.66;5094214;28;20287;-65
2022/07/28 03:50:00;;;;;;;4.22;2.75;;;;;;;14.52;61.41;101772.06;5092331;28;21668;-65
2022/07/28 03:52:25;;;;;;;5.78;3.10;;;;;;;14.47;61.45;101771.47;5092682;28;20036;-64
2022/07/28 03:54:51;;;;;;;4.32;2.85;;;;;;;14.41;61.51;101774.53;5091695;28;20024;-64
2022/07/28 03:57:17;;;;;;;5.90;3.17;;;;;;;14.36;61.63;101769.50;5093051;28;20032;-64
2022/07/28 03:59:43;;;;;;;5.05;3.30;;;;;;;14.31;61.90;101774.28;5090219;28;20048;-65
2022/07/28 04:02:08;;;;;;;6.68;3.63;;;;;;;14.24;61.91;101763.13;5090334;28;20024;-65
2022/07/28 04:04:34;;;;;;;4.85;3.50;;;;;;;14.24;61.87;101754.25;5082941;28;20028;-64
2022/07/28 04:07:02;;;;;;;5.65;3.10;;;;;;;14.30;61.85;101769.91;5092137;28;20110;-64
2022/07/28 04:09:28;;;;;;;5.68;3.40;;;;;;;14.14;62.20;101763.78;5073862;28;20118;-65
2022/07/28 04:11:54;;;;;;;5.47;3.10;;;;;;;14.26;62.19;101774.56;5090410;28;20431;-64
2022/07/28 04:14:19;;;;;;;6.80;3.83;;;;;;;14.17;62.51;101772.47;5094024;28;20586;-64
2022/07/28 04:16:45;;;;;;;7.50;3.50;;;;;;;14.11;62.78;101777.38;5089576;28;20468;-65
2022/07/28 04:19:11;;;;;;;6.13;3.80;;;;;;;14.09;62.51;101774.81;5058804;28;20060;-64
2022/07/28 04:21:36;;;;;;;6.47;3.38;;;;;;;14.01;62.86;101769.94;5091987;28;20028;-65
2022/07/28 04:24:04;;;;;;;6.13;3.50;;;;;;;14.12;62.58;101765.69;5090607;28;20039;-64
2022/07/28 04:26:30;;;;;;;6.88;3.35;;;;;;;14.16;62.24;101768.09;5091333;28;20035;-66
2022/07/28 04:28:56;;;;;;;5.15;3.30;;;;;;;14.15;62.41;101769.06;5056970;28;20032;-64
2022/07/28 04:31:21;;;;;;;6.78;3.85;;;;;;;14.00;62.78;101762.88;5092321;28;20539;-64
2022/07/28 04:33:47;;;;;;;4.55;3.28;;;;;;;13.96;63.31;101760.47;5089348;28;20785;-64
2022/07/28 04:36:12;;;;;;;10.50;3.72;;;;;;;13.94;63.32;101765.94;5090801;28;20061;-64
2022/07/28 04:38:38;;;;;;;8.32;4.32;;;;;;;13.95;63.00;101767.63;5091430;28;20111;-64
2022/07/28 04:41:04;;;;;;;7.07;3.67;;;;;;;14.08;62.80;101770.38;5093000;28;20031;-64
2022/07/28 04:43:32;;;;;;;6.13;3.83;;;;;;;14.12;63.07;101763.03;5091665;28;20028;-64
2022/07/28 04:45:57;;;;;;;6.38;3.90;;;;;;;14.06;62.92;101754.44;5091503;28;20039;-64
2022/07/28 04:48:23;;;;;;;5.57;3.45;;;;;;;14.19;62.83;101754.53;5090676;28;20104;-64
2022/07/28 04:50:50;;;;;;;9.13;3.80;;;;;;;14.19;62.53;101767.91;5093106;28;20066;-64
2022/07/28 04:53:17;;;;;;;6.57;3.63;;;;;;;14.15;63.19;101758.38;5092643;28;20480;-64
2022/07/28 04:55:42;;;;;;;7.10;3.58;;;;;;;14.22;62.69;101759.69;5090108;28;20114;-64
2022/07/28 04:58:08;;;;;;;7.90;3.90;;;;;;;14.18;63.14;101766.19;5089639;28;20562;-64
2022/07/28 05:00:33;;;;;;;5.95;3.47;;;;;;;14.20;63.11;101768.75;5091121;28;20261;-64
2022/07/28 05:03:01;;;;;;;7.45;3.60;;;;;;;14.20;63.13;101766.94;5058589;28;20040;-64
2022/07/28 05:05:27;;;;;;;4.28;3.08;;;;;;;14.19;63.26;101757.19;5089711;28;20020;-64
2022/07/28 05:07:53;;;;;;;5.00;3.60;;;;;;;14.25;62.85;101762.16;5090021;28;20032;-64
2022/07/28 05:10:18;;;;;;;6.90;3.53;;;;;;;14.26;63.00;101754.97;5091618;28;20031;-64
2022/07/28 05:12:46;;;;;;;5.15;3.42;;;;;;;14.26;63.07;101766.53;5090273;28;20032;-65
2022/07/28 05:15:11;;;;;;;4.30;3.47;;;;;;;14.30;62.93;101773.44;5091164;28;20019;-64
2022/07/28 05:17:37;;;;;;;5.05;3.67;;;;;;;14.41;62.46;101764.72;5073123;28;20039;-64
2022/07/28 05:20:04;;;;;;;6.10;3.53;;;;;;;14.42;62.70;101776.28;5091299;28;20395;-64
2022/07/28 05:22:49;;;;;;;4.88;3.38;;;;;;;14.48;63.12;101776.75;5091192;28;20024;-65
2022/07/28 05:25:16;;;;;;;5.82;3.33;;;;;;;14.58;62.64;101781.53;5090146;28;20031;-64
2022/07/28 05:27:43;;;;;;;4.65;3.40;;;;;;;14.61;62.70;101774.16;5090886;28;20024;-64
2022/07/28 05:30:10;;;;;;;6.18;3.50;;;;;;;14.69;62.28;101779.88;5072698;28;20027;-64
2022/07/28 05:32:36;;;;;;;6.05;3.55;;;;;;;14.70;62.44;101775.38;5091879;28;20024;-65
2022/07/28 05:35:01;;;;;;;9.48;4.20;;;;;;;14.73;62.57;101778.69;5088575;28;20055;-64
2022/07/28 05:37:31;;;;;;;10.32;3.47;;;;;;;14.87;62.60;101783.16;5091603;28;20489;-64
2022/07/28 05:39:57;;;;;;;7.70;3.65;;;;;;;14.87;62.24;101782.31;5089473;28;20020;-65
2022/07/28 05:42:24;;;;;;;6.30;3.65;;;;;;;14.96;61.94;101774.50;5091219;28;20407;-65
2022/07/28 05:44:50;;;;;;;6.40;3.30;;;;;;;15.01;62.11;101776.03;5089299;28;20418;-64
2022/07/28 05:47:16;;;;;;;8.48;3.50;;;;;;;15.20;61.55;101774.66;5087472;28;20475;-64
2022/07/28 05:49:41;;;;;;;8.30;3.63;;;;;;;15.22;61.02;101778.13;5090211;28;20040;-65
2022/07/28 05:52:07;;;;;;;6.85;3.60;;;;;;;15.35;60.96;101777.28;5090591;28;20078;-65
2022/07/28 05:54:33;;;;;;;6.70;3.20;;;;;;;15.41;60.75;101772.38;5091625;28;20034;-65
2022/07/28 05:56:58;;;;;;;8.68;3.30;;;;;;;15.33;60.99;101772.03;5088881;28;20036;-65
2022/07/28 05:59:24;;;;;;;5.22;3.08;;;;;;;15.32;60.79;101774.81;5090591;28;20044;-64
2022/07/28 06:01:50;;;;;;;6.15;3.05;;;;;;;15.33;61.01;101776.53;5074765;28;20082;-65
2022/07/28 06:04:15;;;;;;;6.40;2.90;;;;;;;15.27;60.77;101777.81;5087352;28;20067;-65
2022/07/28 06:06:41;;;;;;;7.88;3.50;;;;;;;15.33;60.85;101784.59;5089466;28;20462;-64
2022/07/28 06:09:07;;;;;;;6.68;3.35;;;;;;;15.34;60.76;101783.59;5086417;28;20080;-64
2022/07/28 06:11:33;;;;;;;6.47;3.03;;;;;;;15.41;60.66;101776.84;5088621;28;20111;-64
2022/07/28 06:13:59;;;;;;;7.60;3.03;;;;;;;15.46;61.02;101777.41;5089953;28;20119;-65
2022/07/28 06:16:25;;;;;;;6.68;3.08;;;;;;;15.40;60.60;101776.00;5091033;28;20055;-65
2022/07/28 06:18:53;;;;;;;7.45;3.53;;;;;;;15.42;60.45;101767.88;5093004;28;20040;-64
2022/07/28 06:21:21;;;;;;;9.30;3.70;;;;;;;15.39;61.04;101773.44;5088580;28;20036;-64
2022/07/28 06:23:47;;;;;;;7.55;3.13;;;;;;;15.55;60.24;101774.06;5090286;28;20098;-65
2022/07/28 06:26:12;;;;;;;10.95;3.28;;;;;;;15.67;59.67;101773.25;5088278;28;20119;-64
2022/07/28 06:28:38;;;;;;;9.65;3.53;;;;;;;15.73;59.83;101766.59;5091717;28;20039;-66
2022/07/28 06:31:04;;;;;;;12.90;3.58;;;;;;;15.74;59.24;101765.66;5089631;28;20438;-64
2022/07/28 06:33:29;;;;;;;5.40;3.13;;;;;;;15.81;59.89;101758.88;5072845;28;20088;-65
2022/07/28 06:35:55;;;;;;;6.30;3.17;;;;;;;15.89;59.78;101766.41;5088647;28;20030;-64
2022/07/28 06:38:21;;;;;;;5.72;3.20;;;;;;;15.90;59.72;101768.97;5088401;28;20490;-65
2022/07/28 06:40:49;;;;;;;5.85;2.90;;;;;;;15.93;59.65;101773.25;5089141;28;20028;-65
2022/07/28 06:43:15;;;;;;;6.10;3.03;;;;;;;15.88;59.44;101778.09;5090341;28;20111;-65
2022/07/28 06:45:40;;;;;;;7.57;3.33;;;;;;;15.86;59.00;101775.53;5092734;28;20115;-65
2022/07/28 06:48:09;;;;;;;7.50;2.90;;;;;;;15.89;58.84;101766.41;5092930;28;20036;-65
2022/07/28 06:50:38;;;;;;;7.57;3.00;;;;;;;15.97;59.26;101760.47;5094417;28;20420;-64
2022/07/28 06:53:03;;;;;;;4.67;2.93;;;;;;;16.04;59.11;101768.00;5092934;28;20441;-64
2022/07/28 06:55:29;;;;;;;6.32;2.92;;;;;;;16.18;58.09;101776.88;5093413;28;20274;-64
2022/07/28 06:57:57;;;;;;;7.70;2.92;;;;;;;16.25;58.06;101778.16;5076333;28;20032;-65
2022/07/28 07:00:23;;;;;;;6.85;2.70;;;;;;;16.42;57.86;101775.09;5091039;28;20048;-65
2022/07/28 07:02:48;;;;;;;8.32;2.75;;;;;;;16.62;57.82;101783.50;5104917;28;20112;-65
2022/07/28 07:05:14;;;;;;;4.97;3.03;;;;;;;16.68;57.31;101778.56;5093521;28;20110;-64
2022/07/28 07:07:40;;;;;;;6.20;3.05;;;;;;;16.66;56.98;101787.72;5075902;28;20514;-65
2022/07/28 07:10:06;;;;;;;8.65;3.08;;;;;;;16.61;57.54;101769.22;5092191;28;20054;-65
2022/07/28 07:12:33;;;;;;;7.65;3.60;;;;;;;16.78;56.78;101774.25;5093211;28;20099;-65
2022/07/28 07:14:58;;;;;;;6.05;3.15;;;;;;;17.00;56.33;101781.56;5093012;28;20089;-64
2022/07/28 07:17:24;;;;;;;6.07;2.78;;;;;;;17.29;55.79;101780.31;5090569;28;20111;-64
2022/07/28 07:19:50;;;;;;;8.70;2.63;;;;;;;17.58;54.95;101770.84;5086144;28;20023;-64
2022/07/28 07:22:16;;;;;;;4.53;2.53;;;;;;;17.69;54.87;101778.94;5093682;28;20035;-64
2022/07/28 07:24:42;;;;;;;5.70;2.47;;;;;;;17.64;54.06;101764.13;5073848;28;20027;-65
2022/07/28 07:27:07;;;;;;;6.10;2.70;;;;;;;17.60;53.27;101785.06;5091506;28;20362;-65
2022/07/28 07:29:33;;;;;;;7.88;2.53;;;;;;;17.56;53.14;101780.91;5092073;28;20047;-65
2022/07/28 07:31:58;;;;;;;6.45;2.40;;;;;;;17.64;53.54;101773.06;5092363;28;20024;-65
2022/07/28 07:34:24;;;;;;;8.38;2.47;;;;;;;17.69;52.77;101778.09;5091957;28;20032;-64
2022/07/28 07:36:49;;;;;;;4.70;2.45;;;;;;;17.57;52.71;101774.53;5073553;28;20043;-64
2022/07/28 07:39:15;;;;;;;4.05;2.30;;;;;;;17.61;53.08;101770.63;5085787;28;20071;-65
2022/07/28 07:41:41;;;;;;;7.32;2.88;;;;;;;17.65;52.94;101766.72;5086677;28;20153;-64
2022/07/28 07:44:08;;;;;;;6.40;2.67;;;;;;;17.93;52.22;101768.09;5079597;28;20020;-64
2022/07/28 07:46:35;;;;;;;7.30;2.70;;;;;;;18.06;51.57;101762.63;5090863;28;20028;-65
2022/07/28 07:49:02;;;;;;;4.75;2.38;;;;;;;18.35;51.81;101762.97;5093013;28;20077;-64
2022/07/28 07:51:29;;;;;;;8.40;2.40;;;;;;;18.45;51.33;101760.38;5092612;28;20600;-64
2022/07/28 07:53:54;;;;;;;7.57;2.38;;;;;;;18.60;52.06;101764.50;5095284;28;20088;-64
2022/07/28 07:56:20;;;;;;;8.48;2.28;;;;;;;18.79;50.99;101766.53;5091801;28;20031;-65
2022/07/28 07:58:48;;;;;;;7.05;2.53;;;;;;;18.79;50.39;101765.69;5074331;28;20024;-64
2022/07/28 08:01:14;;;;;;;4.65;2.17;;;;;;;18.93;50.39;101756.44;5092720;28;20024;-64
2022/07/28 08:03:39;;;;;;;4.15;2.35;;;;;;;19.04;49.79;101765.34;5091573;28;20028;-64
2022/07/28 08:06:05;;;;;;;8.15;2.70;;;;;;;19.11;49.39;101762.13;5094353;28;20111;-65
2022/07/28 08:08:30;;;;;;;6.32;2.80;;;;;;;19.18;49.26;101768.72;5092396;28;20111;-64
2022/07/28 08:10:55;;;;;;;5.75;2.45;;;;;;;19.22;48.94;101762.94;5074133;28;20062;-65
2022/07/28 08:13:23;;;;;;;6.00;2.50;;;;;;;19.32;49.68;101759.44;5074448;28;20032;-64
2022/07/28 08:15:50;;;;;;;5.35;2.40;;;;;;;19.44;49.60;101759.28;5093252;28;20043;-64
2022/07/28 08:18:15;;;;;;;7.72;2.60;;;;;;;19.46;49.45;101757.28;5091893;28;20482;-65
2022/07/28 08:20:44;;;;;;;4.38;2.72;;;;;;;19.60;49.10;101760.63;5075263;28;20028;-64
2022/07/28 08:23:09;;;;;;;4.63;2.25;;;;;;;19.68;48.39;101755.47;5090840;28;20489;-64
2022/07/28 08:25:36;;;;;;;6.40;2.42;;;;;;;19.80;48.88;101754.38;5073482;28;20062;-64
2022/07/28 08:28:04;;;;;;;5.88;2.08;;;;;;;19.90;49.58;101747.16;5092135;28;20024;-64
2022/07/28 08:30:30;;;;;;;3.83;2.22;;;;;;;19.91;48.02;101738.09;5093087;28;20486;-64
2022/07/28 08:32:57;;;;;;;6.63;2.75;;;;;;;20.00;47.82;101751.75;5091267;28;20073;-64
2022/07/28 08:35:24;;;;;;;5.72;2.22;;;;;;;20.23;47.64;101749.72;5092156;28;20020;-64
2022/07/28 08:37:50;;;;;;;9.45;2.20;;;;;;;20.33;47.05;101756.84;5090645;28;20089;-65
2022/07/28 08:40:15;;;;;;;6.57;2.40;;;;;;;20.31;46.62;101747.19;5089617;28;20032;-64
2022/07/28 08:42:58;;;;;;;6.00;2.40;;;;;;;20.35;46.97;101743.19;5093911;28;20032;-64
2022/07/28 08:45:25;;;;;;;8.77;1.90;;;;;;;20.49;47.41;101742.81;5090883;28;20020;-64
2022/07/28 08:47:51;;;;;;;4.15;2.15;;;;;;;20.54;46.15;101737.03;5092056;28;20453;-65
2022/07/28 08:50:23;;;;;;;7.57;2.20;;;;;;;20.81;47.42;101750.69;5091821;28;20107;-64
2022/07/28 08:52:51;;;;;;;5.78;2.42;;;;;;;20.89;46.02;101750.00;5091250;28;20028;-65
2022/07/28 08:55:30;;;;;;;4.97;2.47;;;;;;;20.89;46.96;101744.59;5090039;28;20027;-65
2022/07/28 08:57:58;;;;;;;5.20;2.03;;;;;;;21.07;46.03;101740.16;5089797;28;20035;-65
2022/07/28 09:00:24;;;;;;;5.63;1.90;;;;;;;21.06;45.43;101730.34;5074080;28;20036;-64
2022/07/28 09:02:50;;;;;;;6.30;2.30;;;;;;;21.25;44.78;101734.03;5093780;28;20047;-65
2022/07/28 09:05:18;;;;;;;5.18;2.30;;;;;;;21.41;44.78;101736.16;5091110;28;20073;-65
2022/07/28 09:07:47;;;;;;;5.32;2.05;;;;;;;21.44;45.25;101723.22;5091471;28;20731;-65
2022/07/28 09:10:12;;;;;;;;;;;;;;;21.66;44.60;101732.81;5090277;28;20030;-65
2022/07/28 09:12:41;;;;;;;4.85;2.10;;;;;;;21.57;44.82;101705.78;5091549;28;19915;-64
2022/07/28 09:15:08;;;;;;;6.38;2.08;;;;;;;21.84;44.69;101716.66;5091528;28;20507;-64
2022/07/28 09:17:35;;;;;;;7.45;2.50;;;;;;;21.85;44.02;101712.06;5090311;28;20024;-64
2022/07/28 09:20:03;;;;;;;6.78;2.15;;;;;;;21.80;43.77;101717.09;5090925;28;20024;-64
2022/07/28 09:22:30;;;;;;;7.53;2.30;;;;;;;21.97;44.27;101713.56;5093349;28;20058;-64
2022/07/28 09:24:56;;;;;;;10.70;2.65;;;;;;;22.02;43.65;101713.16;5093241;28;20039;-64
2022/07/28 09:27:21;;;;;;;8.57;2.20;;;;;;;22.13;42.82;101702.09;5090251;28;20020;-64
2022/07/28 09:29:56;;;;;;;2.83;1.80;;;;;;;22.15;43.65;101702.81;5090848;28;20580;-65
2022/07/28 09:32:22;;;;;;;5.07;2.10;;;;;;;22.17;43.26;101696.25;5089738;28;20016;-65
2022/07/28 09:34:51;;;;;;;4.25;2.00;;;;;;;22.26;42.36;101689.06;5090735;28;20024;-64
2022/07/28 09:37:18;;;;;;;6.00;2.17;;;;;;;22.28;42.46;101680.78;5092238;28;20020;-65
2022/07/28 09:39:47;;;;;;;6.55;2.28;;;;;;;22.35;42.70;101681.88;5090235;28;20028;-64
2022/07/28 09:42:13;;;;;;;;;;;;;;;22.67;42.85;101684.91;5091499;28;20374;-63
2022/07/28 09:44:39;;;;;;;7.07;2.00;;;;;;;22.65;41.29;101688.81;5087586;28;19931;-63
2022/07/28 09:47:25;;;;;;;7.07;2.03;;;;;;;22.72;42.24;101681.75;5090727;28;20044;-63
2022/07/28 09:49:51;;;;;;;6.25;1.83;;;;;;;22.61;40.96;101684.69;5090194;28;20016;-63
2022/07/28 09:52:30;;;;;;;3.47;1.83;;;;;;;22.46;41.55;101689.78;5089046;28;20019;-62
2022/07/28 09:55:12;;;;;;;4.70;1.80;;;;;;;22.65;41.86;101694.22;5089164;28;20020;-61
2022/07/28 09:57:39;;;;;;;4.95;1.77;;;;;;;22.68;39.90;101688.50;5092167;28;20032;-67
2022/07/28 10:00:10;;;;;;;13.15;2.88;;;;;;;22.76;40.36;101690.41;5091041;28;20040;-69
2022/07/28 10:02:37;;;;;;;8.32;1.90;;;;;;;22.62;40.03;101687.25;5092040;28;20043;-65
2022/07/28 10:05:05;;;;;;;7.03;1.95;;;;;;;22.56;41.09;101681.56;5091894;28;20031;-64
2022/07/28 10:07:33;;;;;;;5.00;2.13;;;;;;;22.56;40.83;101682.44;5088318;28;20391;-65
2022/07/28 10:10:07;;;;;;;7.38;2.00;;;;;;;22.67;40.84;101679.47;5090942;28;20026;-61
2022/07/28 10:12:34;;;;;;;8.52;2.03;;;;;;;22.72;40.36;101680.88;5088861;28;20028;-60
2022/07/28 10:18:06;;;;;;;5.45;1.80;;;;;;;23.02;40.22;101688.63;5091113;28;20066;-59
2022/07/28 10:20:35;;;;;;;4.25;1.90;;;;;;;22.89;39.10;101677.31;5093304;28;20439;-59
2022/07/28 10:23:03;;;;;;;5.35;1.88;;;;;;;22.85;39.78;101675.91;5094938;28;20103;-62
2022/07/28 10:25:32;;;;;;;3.63;1.50;;;;;;;22.94;38.92;101674.09;5095508;28;20023;-60
2022/07/28 10:27:59;;;;;;;5.93;1.80;;;;;;;22.85;39.46;101665.06;5094883;28;20760;-60
2022/07/28 10:30:27;;;;;;;3.22;1.90;;;;;;;23.04;40.40;101674.91;5094609;28;20052;-59
2022/07/28 10:32:55;;;;;;;5.25;1.88;;;;;;;23.02;38.75;101672.34;5094989;28;20016;-60
2022/07/28 10:35:21;;;;;;;5.22;2.08;;;;;;;23.08;38.79;101670.88;5094285;28;20375;-61
2022/07/28 10:38:05;;;;;;;7.57;2.13;;;;;;;23.27;39.19;101670.66;5093220;28;20103;-65
2022/07/28 10:40:40;;;;;;;4.53;1.60;;;;;;;23.35;38.61;101659.00;5093437;28;20115;-60
2022/07/28 10:43:07;;;;;;;5.32;1.90;;;;;;;23.35;39.71;101659.00;5091765;28;20028;-57
2022/07/28 10:45:34;;;;;;;4.82;1.90;;;;;;;23.33;38.43;101656.44;5093907;28;20028;-62
2022/07/28 10:48:01;;;;;;;7.97;2.30;;;;;;;23.44;38.30;101663.47;5093923;28;20031;-60
2022/07/28 10:50:29;;;;;;;4.15;1.92;;;;;;;23.46;38.81;101666.88;5093049;28;20472;-62
2022/07/28 10:52:56;;;;;;;3.43;1.77;;;;;;;23.51;39.63;101652.81;5095826;28;20096;-62
2022/07/28 10:55:45;;;;;;;6.25;1.52;;;;;;;23.57;38.67;101654.88;5092340;28;20064;-62
2022/07/28 10:58:32;;;;;;;3.55;1.60;;;;;;;23.57;39.31;101654.88;5090792;28;20038;-62
2022/07/28 11:00:58;;;;;;;5.40;1.50;;;;;;;23.65;38.31;101646.78;5090245;28;20119;-62
2022/07/28 11:03:46;;;;;;;6.70;2.08;;;;;;;23.86;38.70;101650.97;5074356;28;20579;-62
2022/07/28 11:06:33;;;;;;;6.57;1.50;;;;;;;23.95;38.13;101655.41;5094614;28;20121;-62
2022/07/28 11:09:14;;;;;;;6.18;1.85;;;;;;;23.87;37.94;101650.78;5090416;28;20039;-62
2022/07/28 11:11:42;;;;;;;6.25;1.48;;;;;;;24.06;37.25;101648.81;5092824;28;20047;-62
2022/07/28 11:14:32;;;;;;;3.33;1.58;;;;;;;24.18;38.06;101647.50;5092163;28;20031;-62
2022/07/28 11:17:03;;;;;;;3.60;1.58;;;;;;;23.94;36.74;101642.81;5089592;28;20036;-62
2022/07/28 11:19:44;;;;;;;2.88;1.50;;;;;;;24.09;37.59;101630.31;5095624;28;20478;-62
2022/07/28 11:22:20;;;;;;;5.53;1.73;;;;;;;24.19;37.15;101632.88;5093400;28;20039;-62
2022/07/28 11:25:04;;;;;;;5.15;1.63;;;;;;;24.25;37.53;101637.66;5093211;28;20039;-62
2022/07/28 11:27:42;;;;;;;6.65;2.10;;;;;;;24.25;37.18;101634.94;5091957;28;20050;-62
2022/07/28 11:30:32;;;;;;;3.83;1.70;;;;;;;24.22;36.65;101630.66;5093089;28;20027;-62
2022/07/28 11:32:58;;;;;;;6.03;1.88;;;;;;;24.33;37.09;101625.94;5092423;28;20114;-62
2022/07/28 11:35:44;;;;;;;5.80;1.90;;;;;;;24.34;36.99;101620.31;5093186;28;20436;-62
2022/07/28 11:38:12;;;;;;;3.88;1.80;;;;;;;24.39;35.89;101636.16;5094143;28;20144;-62